AEE282 LGAV-LGKR
Flight info
| Callsign | AEE282 |
|---|---|
| Flight time | 0h 46m |
| Altitude | 26000 |
| Route | KOR UL53 PARNA |
| Aircraft | A320/M-SDE3FGHIRWY/LB1 |
Departure
| Time | 2026-05-07 12:42 |
|---|---|
| Airport | Athens Eleftherios Venizelos International Airport (LGAV) |
Arrival
| Time | 2026-05-07 13:28 |
|---|---|
| Airport | Corfu Ioannis Kapodistrias International Airport (LGKR) |
| Time | Latitude | Longitude | Altitude | Speed | Heading |
|---|---|---|---|---|---|
| 2026-05-07 12:13 | 37.93114 | 23.94415 | 302 ft | 0 kts | 217° |
| 2026-05-07 12:31 | 37.93130 | 23.94429 | 324 ft | 4 kts | 212° |
| 2026-05-07 12:31 | 37.93154 | 23.94445 | 300 ft | 4 kts | 199° |
| 2026-05-07 12:32 | 37.93179 | 23.94450 | 300 ft | 4 kts | 162° |
| 2026-05-07 12:32 | 37.93191 | 23.94442 | 300 ft | 0 kts | 127° |
| 2026-05-07 12:36 | 37.93187 | 23.94448 | 301 ft | 2 kts | 127° |
| 2026-05-07 12:36 | 37.93170 | 23.94477 | 299 ft | 7 kts | 126° |
| 2026-05-07 12:36 | 37.93126 | 23.94553 | 302 ft | 14 kts | 127° |
| 2026-05-07 12:36 | 37.93067 | 23.94655 | 301 ft | 13 kts | 121° |
| 2026-05-07 12:37 | 37.93097 | 23.94757 | 300 ft | 15 kts | 38° |
| 2026-05-07 12:37 | 37.93187 | 23.94842 | 299 ft | 17 kts | 37° |
| 2026-05-07 12:37 | 37.93288 | 23.94939 | 300 ft | 19 kts | 37° |
| 2026-05-07 12:37 | 37.93402 | 23.95047 | 301 ft | 22 kts | 37° |
| 2026-05-07 12:38 | 37.93528 | 23.95165 | 300 ft | 24 kts | 37° |
| 2026-05-07 12:38 | 37.93665 | 23.95296 | 298 ft | 26 kts | 37° |
| 2026-05-07 12:38 | 37.93814 | 23.95437 | 296 ft | 28 kts | 37° |
| 2026-05-07 12:38 | 37.93972 | 23.95588 | 298 ft | 29 kts | 37° |
| 2026-05-07 12:39 | 37.94114 | 23.95722 | 299 ft | 24 kts | 37° |
| 2026-05-07 12:39 | 37.94245 | 23.95846 | 298 ft | 24 kts | 37° |
| 2026-05-07 12:39 | 37.94382 | 23.95977 | 299 ft | 25 kts | 36° |
| 2026-05-07 12:39 | 37.94526 | 23.96112 | 299 ft | 26 kts | 37° |
| 2026-05-07 12:40 | 37.94627 | 23.96206 | 301 ft | 13 kts | 36° |
| 2026-05-07 12:40 | 37.94656 | 23.96290 | 298 ft | 11 kts | 106° |
| 2026-05-07 12:40 | 37.94572 | 23.96318 | 297 ft | 16 kts | 187° |
| 2026-05-07 12:40 | 37.94451 | 23.96295 | 294 ft | 13 kts | 178° |
| 2026-05-07 12:41 | 37.94407 | 23.96277 | 290 ft | 0 kts | 216° |
| 2026-05-07 12:41 | 37.94404 | 23.96275 | 288 ft | 6 kts | 216° |
| 2026-05-07 12:41 | 37.94156 | 23.96040 | 286 ft | 80 kts | 217° |
| 2026-05-07 12:41 | 37.93552 | 23.95465 | 287 ft | 134 kts | 217° |
| 2026-05-07 12:42 | 37.92722 | 23.94715 | 649 ft | 150 kts | 212° |
| 2026-05-07 12:42 | 37.91806 | 23.94062 | 1347 ft | 151 kts | 205° |
| 2026-05-07 12:42 | 37.90844 | 23.93434 | 1805 ft | 165 kts | 207° |
| 2026-05-07 12:42 | 37.89756 | 23.92722 | 2121 ft | 188 kts | 207° |
| 2026-05-07 12:43 | 37.88526 | 23.91909 | 2453 ft | 211 kts | 207° |
| 2026-05-07 12:43 | 37.87156 | 23.90993 | 2900 ft | 231 kts | 207° |
| 2026-05-07 12:43 | 37.85712 | 23.90022 | 3744 ft | 239 kts | 208° |
| 2026-05-07 12:43 | 37.84228 | 23.89019 | 4664 ft | 243 kts | 208° |
| 2026-05-07 12:44 | 37.82734 | 23.87942 | 5471 ft | 254 kts | 217° |
| 2026-05-07 12:44 | 37.81549 | 23.86232 | 6263 ft | 264 kts | 236° |
| 2026-05-07 12:44 | 37.80527 | 23.84271 | 7134 ft | 269 kts | 237° |
| 2026-05-07 12:44 | 37.79496 | 23.82280 | 8020 ft | 273 kts | 238° |
| 2026-05-07 12:45 | 37.78448 | 23.80255 | 8872 ft | 278 kts | 238° |
| 2026-05-07 12:45 | 37.77382 | 23.78198 | 9736 ft | 282 kts | 239° |
| 2026-05-07 12:45 | 37.76300 | 23.76116 | 10313 ft | 297 kts | 238° |
| 2026-05-07 12:45 | 37.75122 | 23.73849 | 10567 ft | 320 kts | 238° |
| 2026-05-07 12:46 | 37.73871 | 23.71442 | 11023 ft | 334 kts | 238° |
| 2026-05-07 12:46 | 37.72569 | 23.68939 | 11753 ft | 338 kts | 238° |
| 2026-05-07 12:46 | 37.71286 | 23.66483 | 12498 ft | 340 kts | 239° |
| 2026-05-07 12:46 | 37.69977 | 23.63977 | 13254 ft | 343 kts | 239° |
| 2026-05-07 12:47 | 37.68658 | 23.61453 | 13999 ft | 346 kts | 239° |
| 2026-05-07 12:47 | 37.67328 | 23.58912 | 14657 ft | 348 kts | 239° |
| 2026-05-07 12:47 | 37.65992 | 23.56356 | 15318 ft | 350 kts | 239° |
| 2026-05-07 12:47 | 37.64646 | 23.53783 | 15970 ft | 352 kts | 239° |
| 2026-05-07 12:48 | 37.63290 | 23.51200 | 16625 ft | 354 kts | 238° |
| 2026-05-07 12:48 | 37.61925 | 23.48599 | 17271 ft | 356 kts | 239° |
| 2026-05-07 12:48 | 37.60858 | 23.45789 | 17883 ft | 357 kts | 255° |
| 2026-05-07 12:48 | 37.60567 | 23.42687 | 18497 ft | 360 kts | 272° |
| 2026-05-07 12:49 | 37.61127 | 23.39604 | 19071 ft | 365 kts | 291° |
| 2026-05-07 12:49 | 37.62448 | 23.36854 | 19645 ft | 370 kts | 303° |
| 2026-05-07 12:49 | 37.64014 | 23.34265 | 20247 ft | 374 kts | 310° |
| 2026-05-07 12:49 | 37.65953 | 23.32040 | 20808 ft | 378 kts | 313° |
| 2026-05-07 12:50 | 37.67702 | 23.29581 | 21354 ft | 377 kts | 305° |
| 2026-05-07 12:50 | 37.69202 | 23.26862 | 21900 ft | 378 kts | 301° |
| 2026-05-07 12:50 | 37.70597 | 23.24044 | 22436 ft | 380 kts | 300° |
| 2026-05-07 12:50 | 37.72003 | 23.21200 | 22944 ft | 382 kts | 301° |
| 2026-05-07 12:51 | 37.73463 | 23.18384 | 23456 ft | 385 kts | 302° |
| 2026-05-07 12:51 | 37.74994 | 23.15592 | 23927 ft | 388 kts | 303° |
| 2026-05-07 12:51 | 37.76573 | 23.12823 | 24370 ft | 389 kts | 304° |
| 2026-05-07 12:51 | 37.78183 | 23.10060 | 24822 ft | 391 kts | 305° |
| 2026-05-07 12:52 | 37.79808 | 23.07298 | 25258 ft | 392 kts | 304° |
| 2026-05-07 12:52 | 37.81438 | 23.04523 | 25684 ft | 394 kts | 304° |
| 2026-05-07 12:52 | 37.83062 | 23.01733 | 26031 ft | 395 kts | 304° |
| 2026-05-07 12:52 | 37.84680 | 22.98934 | 26118 ft | 393 kts | 304° |
| 2026-05-07 12:53 | 37.86288 | 22.96140 | 26123 ft | 392 kts | 304° |
| 2026-05-07 12:53 | 37.87889 | 22.93351 | 26124 ft | 392 kts | 304° |
| 2026-05-07 12:53 | 37.89487 | 22.90561 | 26125 ft | 391 kts | 304° |
| 2026-05-07 12:53 | 37.91083 | 22.87767 | 26128 ft | 391 kts | 304° |
| 2026-05-07 12:54 | 37.92680 | 22.84971 | 26125 ft | 391 kts | 304° |
| 2026-05-07 12:54 | 37.94276 | 22.82181 | 26119 ft | 391 kts | 304° |
| 2026-05-07 12:54 | 37.95870 | 22.79397 | 26119 ft | 391 kts | 304° |
| 2026-05-07 12:54 | 37.97468 | 22.76601 | 26123 ft | 391 kts | 304° |
| 2026-05-07 12:55 | 37.99064 | 22.73803 | 26136 ft | 391 kts | 303° |
| 2026-05-07 12:55 | 38.00657 | 22.71009 | 26140 ft | 391 kts | 303° |
| 2026-05-07 12:55 | 38.02247 | 22.68222 | 26140 ft | 390 kts | 303° |
| 2026-05-07 12:55 | 38.03838 | 22.65434 | 26139 ft | 389 kts | 303° |
| 2026-05-07 12:56 | 38.05416 | 22.62661 | 26139 ft | 389 kts | 303° |
| 2026-05-07 12:56 | 38.07004 | 22.59871 | 26135 ft | 388 kts | 303° |
| 2026-05-07 12:56 | 38.08585 | 22.57090 | 26132 ft | 388 kts | 303° |
| 2026-05-07 12:56 | 38.10164 | 22.54308 | 26133 ft | 388 kts | 303° |
| 2026-05-07 12:57 | 38.11740 | 22.51523 | 26130 ft | 388 kts | 303° |
| 2026-05-07 12:57 | 38.13314 | 22.48739 | 26133 ft | 388 kts | 303° |
| 2026-05-07 12:57 | 38.14893 | 22.45952 | 26131 ft | 388 kts | 303° |
| 2026-05-07 12:57 | 38.16448 | 22.43204 | 26141 ft | 388 kts | 303° |
| 2026-05-07 12:58 | 38.18040 | 22.40389 | 26145 ft | 387 kts | 303° |
| 2026-05-07 12:58 | 38.19589 | 22.37649 | 26146 ft | 386 kts | 303° |
| 2026-05-07 12:58 | 38.21154 | 22.34877 | 26146 ft | 386 kts | 303° |
| 2026-05-07 12:58 | 38.22716 | 22.32109 | 26145 ft | 385 kts | 303° |
| 2026-05-07 12:59 | 38.24276 | 22.29338 | 26145 ft | 385 kts | 303° |
| 2026-05-07 12:59 | 38.25832 | 22.26571 | 26145 ft | 385 kts | 303° |
| 2026-05-07 12:59 | 38.27387 | 22.23801 | 26143 ft | 385 kts | 303° |
| 2026-05-07 12:59 | 38.28942 | 22.21034 | 26141 ft | 384 kts | 303° |
| 2026-05-07 13:00 | 38.30499 | 22.18264 | 26141 ft | 384 kts | 303° |
| 2026-05-07 13:00 | 38.32050 | 22.15498 | 26149 ft | 384 kts | 303° |
| 2026-05-07 13:00 | 38.33600 | 22.12731 | 26162 ft | 383 kts | 302° |
| 2026-05-07 13:00 | 38.35147 | 22.09967 | 26159 ft | 383 kts | 302° |
| 2026-05-07 13:01 | 38.36191 | 22.08107 | 26158 ft | 382 kts | 302° |
| 2026-05-07 13:01 | 38.38229 | 22.04458 | 26152 ft | 381 kts | 302° |
| 2026-05-07 13:01 | 38.39760 | 22.01707 | 26150 ft | 380 kts | 302° |
| 2026-05-07 13:01 | 38.41291 | 21.98958 | 26143 ft | 381 kts | 302° |
| 2026-05-07 13:02 | 38.42824 | 21.96204 | 26140 ft | 380 kts | 302° |
| 2026-05-07 13:02 | 38.44356 | 21.93459 | 26137 ft | 380 kts | 302° |
| 2026-05-07 13:02 | 38.45890 | 21.90715 | 26135 ft | 380 kts | 302° |
| 2026-05-07 13:02 | 38.46905 | 21.88896 | 26134 ft | 380 kts | 302° |
| 2026-05-07 13:03 | 38.48435 | 21.86145 | 26130 ft | 380 kts | 302° |
| 2026-05-07 13:03 | 38.49964 | 21.83388 | 26126 ft | 380 kts | 302° |
| 2026-05-07 13:03 | 38.51488 | 21.80636 | 26124 ft | 379 kts | 302° |
| 2026-05-07 13:03 | 38.53010 | 21.77889 | 26122 ft | 379 kts | 302° |
| 2026-05-07 13:04 | 38.54537 | 21.75136 | 26108 ft | 380 kts | 302° |
| 2026-05-07 13:04 | 38.56066 | 21.72377 | 26121 ft | 381 kts | 302° |
| 2026-05-07 13:04 | 38.57593 | 21.69620 | 26104 ft | 380 kts | 302° |
| 2026-05-07 13:04 | 38.59123 | 21.66857 | 26112 ft | 380 kts | 302° |
| 2026-05-07 13:05 | 38.60653 | 21.64096 | 26113 ft | 380 kts | 302° |
| 2026-05-07 13:05 | 38.62180 | 21.61338 | 26122 ft | 381 kts | 302° |
| 2026-05-07 13:05 | 38.63707 | 21.58572 | 26113 ft | 381 kts | 302° |
| 2026-05-07 13:05 | 38.65232 | 21.55796 | 26110 ft | 380 kts | 301° |
| 2026-05-07 13:06 | 38.66706 | 21.53111 | 26115 ft | 357 kts | 302° |
| 2026-05-07 13:06 | 38.68110 | 21.50560 | 26110 ft | 345 kts | 301° |
| 2026-05-07 13:06 | 38.69482 | 21.48059 | 26091 ft | 342 kts | 301° |
| 2026-05-07 13:06 | 38.70850 | 21.45567 | 26101 ft | 342 kts | 301° |
| 2026-05-07 13:07 | 38.72216 | 21.43081 | 26114 ft | 341 kts | 301° |
| 2026-05-07 13:07 | 38.73577 | 21.40599 | 26115 ft | 341 kts | 301° |
| 2026-05-07 13:07 | 38.74938 | 21.38116 | 25878 ft | 338 kts | 301° |
| 2026-05-07 13:07 | 38.76289 | 21.35645 | 25560 ft | 339 kts | 301° |
| 2026-05-07 13:08 | 38.77637 | 21.33174 | 25226 ft | 338 kts | 301° |
| 2026-05-07 13:08 | 38.78983 | 21.30709 | 24897 ft | 338 kts | 301° |
| 2026-05-07 13:08 | 38.80329 | 21.28245 | 24570 ft | 337 kts | 301° |
| 2026-05-07 13:08 | 38.81669 | 21.25783 | 24243 ft | 337 kts | 302° |
| 2026-05-07 13:09 | 38.83012 | 21.23319 | 23920 ft | 337 kts | 302° |
| 2026-05-07 13:09 | 38.84352 | 21.20861 | 23592 ft | 336 kts | 302° |
| 2026-05-07 13:09 | 38.85691 | 21.18405 | 23213 ft | 336 kts | 302° |
| 2026-05-07 13:09 | 38.87025 | 21.15953 | 22837 ft | 334 kts | 302° |
| 2026-05-07 13:10 | 38.88353 | 21.13512 | 22467 ft | 333 kts | 301° |
| 2026-05-07 13:10 | 38.89673 | 21.11082 | 22105 ft | 331 kts | 301° |
| 2026-05-07 13:10 | 38.90981 | 21.08667 | 21743 ft | 329 kts | 301° |
| 2026-05-07 13:10 | 38.92283 | 21.06258 | 21392 ft | 327 kts | 301° |
| 2026-05-07 13:11 | 38.93577 | 21.03864 | 21039 ft | 326 kts | 301° |
| 2026-05-07 13:11 | 38.94870 | 21.01478 | 20694 ft | 325 kts | 301° |
| 2026-05-07 13:11 | 38.96159 | 20.99103 | 20372 ft | 324 kts | 301° |
| 2026-05-07 13:11 | 38.97443 | 20.96732 | 20060 ft | 322 kts | 301° |
| 2026-05-07 13:12 | 38.98720 | 20.94368 | 19756 ft | 322 kts | 301° |
| 2026-05-07 13:12 | 38.99997 | 20.92003 | 19444 ft | 321 kts | 300° |
| 2026-05-07 13:12 | 39.01268 | 20.89650 | 19166 ft | 320 kts | 300° |
| 2026-05-07 13:12 | 39.02535 | 20.87301 | 19100 ft | 319 kts | 300° |
| 2026-05-07 13:13 | 39.03800 | 20.84949 | 19107 ft | 320 kts | 300° |
| 2026-05-07 13:13 | 39.05065 | 20.82598 | 19109 ft | 320 kts | 300° |
| 2026-05-07 13:13 | 39.06315 | 20.80275 | 19003 ft | 318 kts | 300° |
| 2026-05-07 13:13 | 39.07590 | 20.77905 | 18558 ft | 317 kts | 300° |
| 2026-05-07 13:14 | 39.08827 | 20.75600 | 18136 ft | 317 kts | 300° |
| 2026-05-07 13:14 | 39.10092 | 20.73239 | 17683 ft | 316 kts | 300° |
| 2026-05-07 13:14 | 39.11337 | 20.70915 | 17256 ft | 314 kts | 300° |
| 2026-05-07 13:14 | 39.12560 | 20.68636 | 16805 ft | 313 kts | 300° |
| 2026-05-07 13:15 | 39.13796 | 20.66338 | 16375 ft | 312 kts | 300° |
| 2026-05-07 13:15 | 39.15025 | 20.64042 | 15952 ft | 312 kts | 300° |
| 2026-05-07 13:15 | 39.16251 | 20.61742 | 15519 ft | 310 kts | 300° |
| 2026-05-07 13:15 | 39.17470 | 20.59457 | 15102 ft | 309 kts | 300° |
| 2026-05-07 13:16 | 39.18688 | 20.57175 | 14685 ft | 309 kts | 300° |
| 2026-05-07 13:16 | 39.19903 | 20.54896 | 14294 ft | 309 kts | 300° |
| 2026-05-07 13:16 | 39.21121 | 20.52614 | 13897 ft | 308 kts | 300° |
| 2026-05-07 13:16 | 39.22335 | 20.50340 | 13425 ft | 309 kts | 300° |
| 2026-05-07 13:17 | 39.23553 | 20.48054 | 12960 ft | 309 kts | 300° |
| 2026-05-07 13:17 | 39.24767 | 20.45768 | 12506 ft | 309 kts | 299° |
| 2026-05-07 13:17 | 39.25936 | 20.43444 | 12051 ft | 307 kts | 291° |
| 2026-05-07 13:17 | 39.26636 | 20.40881 | 11604 ft | 302 kts | 282° |
| 2026-05-07 13:18 | 39.27224 | 20.38288 | 11157 ft | 297 kts | 282° |
| 2026-05-07 13:18 | 39.27792 | 20.35777 | 10738 ft | 286 kts | 282° |
| 2026-05-07 13:18 | 39.28341 | 20.33355 | 10354 ft | 277 kts | 281° |
| 2026-05-07 13:18 | 39.28873 | 20.31003 | 9983 ft | 271 kts | 281° |
| 2026-05-07 13:19 | 39.29399 | 20.28660 | 9597 ft | 273 kts | 281° |
| 2026-05-07 13:19 | 39.29925 | 20.26307 | 9208 ft | 274 kts | 281° |
| 2026-05-07 13:19 | 39.30455 | 20.23926 | 8825 ft | 276 kts | 282° |
| 2026-05-07 13:19 | 39.30985 | 20.21541 | 8442 ft | 277 kts | 282° |
| 2026-05-07 13:20 | 39.31519 | 20.19145 | 8066 ft | 278 kts | 282° |
| 2026-05-07 13:20 | 39.32055 | 20.16751 | 7673 ft | 274 kts | 282° |
| 2026-05-07 13:20 | 39.32579 | 20.14423 | 7317 ft | 265 kts | 282° |
| 2026-05-07 13:20 | 39.33077 | 20.12212 | 7027 ft | 255 kts | 282° |
| 2026-05-07 13:21 | 39.33569 | 20.10028 | 6714 ft | 245 kts | 282° |
| 2026-05-07 13:21 | 39.34028 | 20.07972 | 6406 ft | 237 kts | 282° |
| 2026-05-07 13:21 | 39.34476 | 20.05951 | 6076 ft | 230 kts | 282° |
| 2026-05-07 13:21 | 39.34912 | 20.03990 | 5771 ft | 223 kts | 282° |
| 2026-05-07 13:22 | 39.35327 | 20.02119 | 5457 ft | 211 kts | 282° |
| 2026-05-07 13:22 | 39.35853 | 20.00378 | 5132 ft | 209 kts | 300° |
| 2026-05-07 13:22 | 39.36820 | 19.98996 | 4813 ft | 208 kts | 323° |
| 2026-05-07 13:22 | 39.38102 | 19.98184 | 4483 ft | 205 kts | 347° |
| 2026-05-07 13:23 | 39.39504 | 19.97981 | 4170 ft | 201 kts | 0° |
| 2026-05-07 13:23 | 39.40856 | 19.97907 | 3851 ft | 189 kts | 0° |
| 2026-05-07 13:23 | 39.42145 | 19.97813 | 3484 ft | 184 kts | 355° |
| 2026-05-07 13:23 | 39.43382 | 19.97412 | 3105 ft | 182 kts | 346° |
| 2026-05-07 13:24 | 39.44580 | 19.96960 | 2739 ft | 178 kts | 346° |
| 2026-05-07 13:24 | 39.45754 | 19.96520 | 2392 ft | 173 kts | 346° |
| 2026-05-07 13:24 | 39.46893 | 19.96095 | 2070 ft | 168 kts | 346° |
| 2026-05-07 13:24 | 39.47991 | 19.95682 | 1812 ft | 161 kts | 345° |
| 2026-05-07 13:25 | 39.49054 | 19.95282 | 1721 ft | 155 kts | 346° |
| 2026-05-07 13:25 | 39.50080 | 19.94897 | 1718 ft | 152 kts | 346° |
| 2026-05-07 13:25 | 39.51096 | 19.94517 | 1682 ft | 152 kts | 346° |
| 2026-05-07 13:25 | 39.52113 | 19.94129 | 1462 ft | 152 kts | 343° |
| 2026-05-07 13:26 | 39.53083 | 19.93596 | 1275 ft | 151 kts | 332° |
| 2026-05-07 13:26 | 39.54026 | 19.93010 | 1070 ft | 149 kts | 340° |
| 2026-05-07 13:26 | 39.55007 | 19.92601 | 869 ft | 147 kts | 347° |
| 2026-05-07 13:26 | 39.55995 | 19.92281 | 700 ft | 147 kts | 348° |
| 2026-05-07 13:27 | 39.56991 | 19.92035 | 493 ft | 146 kts | 350° |
| 2026-05-07 13:27 | 39.57979 | 19.91777 | 313 ft | 144 kts | 352° |
| 2026-05-07 13:27 | 39.58961 | 19.91531 | 102 ft | 144 kts | 351° |
| 2026-05-07 13:27 | 39.59904 | 19.91290 | 15 ft | 123 kts | 348° |
| 2026-05-07 13:28 | 39.60548 | 19.91118 | 8 ft | 62 kts | 348° |
| 2026-05-07 13:28 | 39.60913 | 19.91029 | 9 ft | 41 kts | 349° |
| 2026-05-07 13:28 | 39.61040 | 19.91057 | 9 ft | 15 kts | 64° |
| 2026-05-07 13:28 | 39.61025 | 19.91132 | 9 ft | 9 kts | 162° |
| 2026-05-07 13:29 | 39.60982 | 19.91141 | 9 ft | 9 kts | 171° |